METAR AND TAF INFORMATION
METAR FOR OIBP
ADDS - METARS form results

(1038 UTC 22 April 2018)
Data provider http://aviationweather.gov/adds/metars/
 
METAR text: OIBP 221030Z 16014KT CAVOK 38/03 Q1006 A2971
Conditions at: OIBP (PERSIAN GULF APT, IR) observed 1030 UTC 22 April 2018
Temperature: 38.0°C (100°F)
Dewpoint: 3.0°C (37°F) [RH = 11%]
Pressure (altimeter): 29.70 inches Hg (1006.0 mb)
Winds: from the SSE (160 degrees) at 16 MPH (14 knots; 7.3 m/s)
Visibility: 6 or more miles (10+ km)
Ceiling: ceiling and visibility are OK
Clouds: unknown
Weather: no significant weather observed at this time

METAR text: OIBP 221000Z 17014KT CAVOK 38/03 Q1006 A2972
Conditions at: OIBP (PERSIAN GULF APT, IR) observed 1000 UTC 22 April 2018
Temperature: 38.0°C (100°F)
Dewpoint: 3.0°C (37°F) [RH = 11%]
Pressure (altimeter): 29.70 inches Hg (1006.0 mb)
Winds: from the S (170 degrees) at 16 MPH (14 knots; 7.3 m/s)
Visibility: 6 or more miles (10+ km)
Ceiling: ceiling and visibility are OK
Clouds: unknown
Weather: no significant weather observed at this time

 AIRPORT MAP

 RUNWAY INFORMATION
Runway 13 Runway length 13115 ft Runway width 148 ft
Runway elevation 18 ft Runway displaced threshold 0 ft Runway heading 129
Runway 31 Runway length 13115 ft Runway width 148 ft
Runway elevation 27 ft Runway displaced threshold 0 ft Runway heading 309

 AIRPORT FREQUENCIES
Type AFIS Name INFO Frequency 118.125 MHZ

 AIRPORT NEAR NAVIGATION AIDS
Type NDB Name Persian Gulf Frequency 457 KHZ



Copyright @ Iran Aseman Virtual Airline